sensor_id;sensor_type;location;lat;lon;timestamp;P1;durP1;ratioP1;P2;durP2;ratioP2
15814;SDS011;8008;50.024;8.172;2023-02-15T04:02:39;49.13;;;18.80;;
15814;SDS011;8008;50.024;8.172;2023-02-15T04:05:15;52.43;;;20.57;;
15814;SDS011;8008;50.024;8.172;2023-02-15T04:07:43;48.37;;;19.53;;
15814;SDS011;8008;50.024;8.172;2023-02-15T04:10:10;48.00;;;19.13;;
15814;SDS011;8008;50.024;8.172;2023-02-15T04:12:56;51.83;;;19.47;;
15814;SDS011;8008;50.024;8.172;2023-02-15T04:15:24;48.17;;;18.50;;
15814;SDS011;8008;50.024;8.172;2023-02-15T04:18:12;50.70;;;19.30;;
15814;SDS011;8008;50.024;8.172;2023-02-15T04:20:42;56.33;;;19.83;;
15814;SDS011;8008;50.024;8.172;2023-02-15T04:23:28;54.37;;;19.30;;
15814;SDS011;8008;50.024;8.172;2023-02-15T04:26:14;47.23;;;18.77;;
15814;SDS011;8008;50.024;8.172;2023-02-15T04:28:42;49.87;;;19.00;;
15814;SDS011;8008;50.024;8.172;2023-02-15T04:31:10;48.53;;;18.40;;
15814;SDS011;8008;50.024;8.172;2023-02-15T04:33:39;44.40;;;18.00;;
15814;SDS011;8008;50.024;8.172;2023-02-15T04:36:07;45.57;;;17.70;;
15814;SDS011;8008;50.024;8.172;2023-02-15T04:38:35;44.67;;;17.77;;
15814;SDS011;8008;50.024;8.172;2023-02-15T04:41:03;44.07;;;18.30;;
15814;SDS011;8008;50.024;8.172;2023-02-15T04:43:30;44.03;;;18.40;;
15814;SDS011;8008;50.024;8.172;2023-02-15T04:45:58;43.37;;;18.97;;
15814;SDS011;8008;50.024;8.172;2023-02-15T04:48:27;41.73;;;17.83;;
15814;SDS011;8008;50.024;8.172;2023-02-15T04:50:56;44.40;;;18.30;;
15814;SDS011;8008;50.024;8.172;2023-02-15T04:53:24;39.57;;;17.17;;
15814;SDS011;8008;50.024;8.172;2023-02-15T04:55:52;43.33;;;18.10;;
15814;SDS011;8008;50.024;8.172;2023-02-15T04:58:20;42.60;;;17.83;;
15814;SDS011;8008;50.024;8.172;2023-02-15T05:00:48;39.33;;;16.80;;
15814;SDS011;8008;50.024;8.172;2023-02-15T05:03:15;39.87;;;16.70;;
15814;SDS011;8008;50.024;8.172;2023-02-15T05:05:44;48.23;;;18.37;;
15814;SDS011;8008;50.024;8.172;2023-02-15T05:08:14;45.77;;;17.10;;
15814;SDS011;8008;50.024;8.172;2023-02-15T05:10:42;45.53;;;18.37;;
15814;SDS011;8008;50.024;8.172;2023-02-15T05:13:10;40.60;;;16.23;;
15814;SDS011;8008;50.024;8.172;2023-02-15T05:15:38;44.43;;;18.33;;
15814;SDS011;8008;50.024;8.172;2023-02-15T05:18:05;41.93;;;18.00;;
15814;SDS011;8008;50.024;8.172;2023-02-15T05:20:33;45.40;;;19.10;;
15814;SDS011;8008;50.024;8.172;2023-02-15T05:23:01;44.37;;;18.33;;
15814;SDS011;8008;50.024;8.172;2023-02-15T05:25:31;44.53;;;17.83;;
15814;SDS011;8008;50.024;8.172;2023-02-15T05:28:16;42.33;;;17.97;;
15814;SDS011;8008;50.024;8.172;2023-02-15T05:30:47;50.03;;;19.63;;
15814;SDS011;8008;50.024;8.172;2023-02-15T05:33:16;48.90;;;19.40;;
15814;SDS011;8008;50.024;8.172;2023-02-15T05:35:44;44.97;;;18.63;;
15814;SDS011;8008;50.024;8.172;2023-02-15T05:38:11;46.50;;;18.77;;
15814;SDS011;8008;50.024;8.172;2023-02-15T05:40:41;49.10;;;18.90;;
15814;SDS011;8008;50.024;8.172;2023-02-15T05:43:08;45.70;;;19.07;;
15814;SDS011;8008;50.024;8.172;2023-02-15T05:45:36;40.27;;;17.60;;
15814;SDS011;8008;50.024;8.172;2023-02-15T05:48:04;42.93;;;17.67;;
15814;SDS011;8008;50.024;8.172;2023-02-15T05:50:32;40.03;;;16.73;;
15814;SDS011;8008;50.024;8.172;2023-02-15T05:53:00;34.37;;;16.27;;
15814;SDS011;8008;50.024;8.172;2023-02-15T05:55:28;40.37;;;17.43;;
15814;SDS011;8008;50.024;8.172;2023-02-15T05:57:57;41.20;;;17.27;;
15814;SDS011;8008;50.024;8.172;2023-02-15T06:00:25;41.20;;;17.77;;
15814;SDS011;8008;50.024;8.172;2023-02-15T06:02:53;37.17;;;15.67;;
15814;SDS011;8008;50.024;8.172;2023-02-15T06:05:21;34.67;;;15.30;;
15814;SDS011;8008;50.024;8.172;2023-02-15T06:07:48;39.75;;;18.50;;
15814;SDS011;8008;50.024;8.172;2023-02-15T06:10:16;36.43;;;16.67;;
15814;SDS011;8008;50.024;8.172;2023-02-15T06:12:44;36.50;;;15.77;;
15814;SDS011;8008;50.024;8.172;2023-02-15T06:15:14;37.10;;;16.23;;
15814;SDS011;8008;50.024;8.172;2023-02-15T06:17:42;33.83;;;15.77;;
15814;SDS011;8008;50.024;8.172;2023-02-15T06:20:10;34.70;;;15.77;;
15814;SDS011;8008;50.024;8.172;2023-02-15T06:22:39;33.57;;;15.10;;
15814;SDS011;8008;50.024;8.172;2023-02-15T06:25:07;31.50;;;14.30;;
15814;SDS011;8008;50.024;8.172;2023-02-15T06:27:36;31.43;;;14.93;;
15814;SDS011;8008;50.024;8.172;2023-02-15T06:30:04;31.23;;;14.17;;
15814;SDS011;8008;50.024;8.172;2023-02-15T06:32:35;27.70;;;13.13;;
15814;SDS011;8008;50.024;8.172;2023-02-15T06:35:03;27.10;;;12.70;;
15814;SDS011;8008;50.024;8.172;2023-02-15T06:37:31;26.33;;;13.13;;
15814;SDS011;8008;50.024;8.172;2023-02-15T06:39:59;29.80;;;13.47;;
15814;SDS011;8008;50.024;8.172;2023-02-15T06:42:29;27.07;;;12.90;;
15814;SDS011;8008;50.024;8.172;2023-02-15T06:44:57;31.83;;;12.97;;
15814;SDS011;8008;50.024;8.172;2023-02-15T06:47:26;27.90;;;12.20;;
15814;SDS011;8008;50.024;8.172;2023-02-15T06:49:55;27.67;;;12.47;;
15814;SDS011;8008;50.024;8.172;2023-02-15T06:52:23;29.97;;;12.80;;
15814;SDS011;8008;50.024;8.172;2023-02-15T06:54:51;29.47;;;12.37;;
15814;SDS011;8008;50.024;8.172;2023-02-15T06:57:19;25.70;;;11.67;;
15814;SDS011;8008;50.024;8.172;2023-02-15T06:59:47;24.70;;;11.90;;
15814;SDS011;8008;50.024;8.172;2023-02-15T07:02:15;23.77;;;11.57;;
15814;SDS011;8008;50.024;8.172;2023-02-15T07:04:43;25.37;;;11.63;;
15814;SDS011;8008;50.024;8.172;2023-02-15T07:07:12;25.03;;;10.97;;
15814;SDS011;8008;50.024;8.172;2023-02-15T07:09:40;26.20;;;11.87;;
15814;SDS011;8008;50.024;8.172;2023-02-15T07:12:08;19.93;;;9.57;;
15814;SDS011;8008;50.024;8.172;2023-02-15T07:14:54;20.60;;;10.10;;
15814;SDS011;8008;50.024;8.172;2023-02-15T07:17:24;23.67;;;10.40;;
15814;SDS011;8008;50.024;8.172;2023-02-15T07:20:02;20.87;;;9.67;;
15814;SDS011;8008;50.024;8.172;2023-02-15T07:22:33;22.03;;;9.97;;
15814;SDS011;8008;50.024;8.172;2023-02-15T07:25:02;19.87;;;9.43;;
15814;SDS011;8008;50.024;8.172;2023-02-15T07:27:30;20.67;;;9.40;;
15814;SDS011;8008;50.024;8.172;2023-02-15T07:29:58;21.80;;;9.90;;
15814;SDS011;8008;50.024;8.172;2023-02-15T07:32:27;20.57;;;9.70;;
15814;SDS011;8008;50.024;8.172;2023-02-15T07:34:56;19.43;;;10.27;;
15814;SDS011;8008;50.024;8.172;2023-02-15T07:37:25;21.53;;;10.07;;
15814;SDS011;8008;50.024;8.172;2023-02-15T07:39:55;18.50;;;9.20;;
15814;SDS011;8008;50.024;8.172;2023-02-15T07:42:23;21.67;;;9.80;;
15814;SDS011;8008;50.024;8.172;2023-02-15T07:44:51;20.63;;;10.37;;
15814;SDS011;8008;50.024;8.172;2023-02-15T07:47:19;21.40;;;9.87;;
15814;SDS011;8008;50.024;8.172;2023-02-15T07:49:47;20.53;;;10.20;;
15814;SDS011;8008;50.024;8.172;2023-02-15T07:52:15;19.63;;;10.07;;
15814;SDS011;8008;50.024;8.172;2023-02-15T07:54:43;22.03;;;10.20;;
15814;SDS011;8008;50.024;8.172;2023-02-15T07:57:12;22.73;;;10.07;;
15814;SDS011;8008;50.024;8.172;2023-02-15T07:59:40;17.17;;;9.33;;
15814;SDS011;8008;50.024;8.172;2023-02-15T08:02:08;17.40;;;9.20;;
15814;SDS011;8008;50.024;8.172;2023-02-15T08:04:37;19.03;;;9.50;;
15814;SDS011;8008;50.024;8.172;2023-02-15T08:07:05;20.67;;;10.20;;
15814;SDS011;8008;50.024;8.172;2023-02-15T08:09:33;20.77;;;10.53;;
15814;SDS011;8008;50.024;8.172;2023-02-15T08:12:01;19.37;;;9.67;;
15814;SDS011;8008;50.024;8.172;2023-02-15T08:14:30;23.80;;;11.60;;
15814;SDS011;8008;50.024;8.172;2023-02-15T08:16:59;23.60;;;11.07;;
15814;SDS011;8008;50.024;8.172;2023-02-15T08:19:29;18.60;;;9.77;;
15814;SDS011;8008;50.024;8.172;2023-02-15T08:21:59;21.07;;;9.90;;
15814;SDS011;8008;50.024;8.172;2023-02-15T08:24:29;21.60;;;10.40;;
15814;SDS011;8008;50.024;8.172;2023-02-15T08:26:59;22.43;;;11.10;;
15814;SDS011;8008;50.024;8.172;2023-02-15T08:29:33;27.87;;;12.50;;
15814;SDS011;8008;50.024;8.172;2023-02-15T08:32:03;26.03;;;11.83;;
15814;SDS011;8008;50.024;8.172;2023-02-15T08:34:34;20.73;;;9.57;;
15814;SDS011;8008;50.024;8.172;2023-02-15T08:37:03;19.43;;;10.20;;
15814;SDS011;8008;50.024;8.172;2023-02-15T08:39:32;20.63;;;9.97;;
15814;SDS011;8008;50.024;8.172;2023-02-15T08:42:01;22.97;;;11.40;;
15814;SDS011;8008;50.024;8.172;2023-02-15T08:44:29;21.20;;;10.10;;
15814;SDS011;8008;50.024;8.172;2023-02-15T08:46:58;22.77;;;10.53;;
15814;SDS011;8008;50.024;8.172;2023-02-15T08:49:29;22.47;;;10.57;;
15814;SDS011;8008;50.024;8.172;2023-02-15T08:51:57;21.63;;;10.17;;
15814;SDS011;8008;50.024;8.172;2023-02-15T08:54:25;21.10;;;10.07;;
15814;SDS011;8008;50.024;8.172;2023-02-15T08:56:53;19.13;;;9.73;;
15814;SDS011;8008;50.024;8.172;2023-02-15T08:59:21;23.47;;;10.93;;
15814;SDS011;8008;50.024;8.172;2023-02-15T09:01:51;23.47;;;10.70;;
15814;SDS011;8008;50.024;8.172;2023-02-15T09:04:21;22.47;;;11.07;;
15814;SDS011;8008;50.024;8.172;2023-02-15T09:06:49;26.53;;;11.93;;
15814;SDS011;8008;50.024;8.172;2023-02-15T09:09:17;22.63;;;11.03;;
15814;SDS011;8008;50.024;8.172;2023-02-15T09:11:47;24.07;;;11.57;;
15814;SDS011;8008;50.024;8.172;2023-02-15T09:14:24;22.00;;;11.10;;
15814;SDS011;8008;50.024;8.172;2023-02-15T09:16:52;24.37;;;11.70;;
15814;SDS011;8008;50.024;8.172;2023-02-15T09:19:22;22.17;;;11.50;;
15814;SDS011;8008;50.024;8.172;2023-02-15T09:21:51;20.57;;;10.57;;
15814;SDS011;8008;50.024;8.172;2023-02-15T09:24:19;20.27;;;9.87;;
15814;SDS011;8008;50.024;8.172;2023-02-15T09:26:47;19.47;;;9.80;;
15814;SDS011;8008;50.024;8.172;2023-02-15T09:29:16;21.67;;;10.50;;
15814;SDS011;8008;50.024;8.172;2023-02-15T09:31:46;20.50;;;10.53;;
15814;SDS011;8008;50.024;8.172;2023-02-15T09:34:16;21.80;;;10.97;;
15814;SDS011;8008;50.024;8.172;2023-02-15T09:36:47;26.47;;;11.77;;
15814;SDS011;8008;50.024;8.172;2023-02-15T09:39:17;22.43;;;11.60;;
15814;SDS011;8008;50.024;8.172;2023-02-15T09:44:47;24.80;;;11.17;;
15814;SDS011;8008;50.024;8.172;2023-02-15T09:47:30;24.77;;;10.90;;
15814;SDS011;8008;50.024;8.172;2023-02-15T09:50:15;25.60;;;11.87;;
15814;SDS011;8008;50.024;8.172;2023-02-15T09:52:52;22.93;;;11.30;;
15814;SDS011;8008;50.024;8.172;2023-02-15T09:55:37;26.27;;;11.53;;
15814;SDS011;8008;50.024;8.172;2023-02-15T09:58:17;25.23;;;11.53;;
15814;SDS011;8008;50.024;8.172;2023-02-15T10:00:54;24.10;;;11.93;;
15814;SDS011;8008;50.024;8.172;2023-02-15T10:03:38;25.13;;;12.17;;
15814;SDS011;8008;50.024;8.172;2023-02-15T10:06:22;24.77;;;11.77;;
15814;SDS011;8008;50.024;8.172;2023-02-15T10:09:09;22.90;;;11.27;;
15814;SDS011;8008;50.024;8.172;2023-02-15T10:12:01;21.90;;;11.20;;
15814;SDS011;8008;50.024;8.172;2023-02-15T10:14:47;21.70;;;10.77;;
15814;SDS011;8008;50.024;8.172;2023-02-15T10:17:26;19.87;;;10.33;;
15814;SDS011;8008;50.024;8.172;2023-02-15T10:20:07;21.87;;;11.10;;
15814;SDS011;8008;50.024;8.172;2023-02-15T10:22:47;22.80;;;10.87;;
15814;SDS011;8008;50.024;8.172;2023-02-15T10:25:30;21.77;;;10.90;;
15814;SDS011;8008;50.024;8.172;2023-02-15T10:28:05;21.10;;;11.10;;
15814;SDS011;8008;50.024;8.172;2023-02-15T10:30:38;19.83;;;10.43;;
15814;SDS011;8008;50.024;8.172;2023-02-15T10:33:13;19.47;;;10.37;;
15814;SDS011;8008;50.024;8.172;2023-02-15T10:35:51;19.50;;;10.43;;
15814;SDS011;8008;50.024;8.172;2023-02-15T10:38:27;20.17;;;10.93;;
15814;SDS011;8008;50.024;8.172;2023-02-15T10:41:09;21.53;;;10.67;;
15814;SDS011;8008;50.024;8.172;2023-02-15T10:43:56;20.03;;;10.50;;
15814;SDS011;8008;50.024;8.172;2023-02-15T10:46:40;22.03;;;11.20;;
15814;SDS011;8008;50.024;8.172;2023-02-15T10:49:24;19.43;;;10.90;;
15814;SDS011;8008;50.024;8.172;2023-02-15T10:52:08;25.33;;;11.20;;
15814;SDS011;8008;50.024;8.172;2023-02-15T10:54:45;23.83;;;11.67;;
15814;SDS011;8008;50.024;8.172;2023-02-15T10:57:26;19.77;;;10.83;;
15814;SDS011;8008;50.024;8.172;2023-02-15T11:00:05;18.50;;;10.77;;
15814;SDS011;8008;50.024;8.172;2023-02-15T11:02:42;20.93;;;11.10;;
15814;SDS011;8008;50.024;8.172;2023-02-15T11:05:31;20.60;;;11.77;;
15814;SDS011;8008;50.024;8.172;2023-02-15T11:08:05;20.07;;;10.77;;
15814;SDS011;8008;50.024;8.172;2023-02-15T11:10:37;20.23;;;10.13;;
15814;SDS011;8008;50.024;8.172;2023-02-15T11:13:11;18.27;;;10.27;;
15814;SDS011;8008;50.024;8.172;2023-02-15T11:15:42;22.43;;;10.87;;
15814;SDS011;8008;50.024;8.172;2023-02-15T11:18:15;17.87;;;9.90;;
15814;SDS011;8008;50.024;8.172;2023-02-15T11:20:50;20.73;;;11.23;;
15814;SDS011;8008;50.024;8.172;2023-02-15T11:23:21;18.10;;;10.63;;
15814;SDS011;8008;50.024;8.172;2023-02-15T11:25:53;18.80;;;10.97;;
15814;SDS011;8008;50.024;8.172;2023-02-15T11:28:27;17.77;;;10.63;;
15814;SDS011;8008;50.024;8.172;2023-02-15T11:30:58;19.67;;;10.97;;
15814;SDS011;8008;50.024;8.172;2023-02-15T11:33:31;20.20;;;10.67;;
15814;SDS011;8008;50.024;8.172;2023-02-15T11:36:03;18.60;;;10.60;;
15814;SDS011;8008;50.024;8.172;2023-02-15T11:38:35;19.30;;;10.97;;
15814;SDS011;8008;50.024;8.172;2023-02-15T11:41:07;22.63;;;11.80;;
15814;SDS011;8008;50.024;8.172;2023-02-15T11:43:39;22.60;;;13.70;;
15814;SDS011;8008;50.024;8.172;2023-02-15T11:46:12;22.27;;;12.20;;
15814;SDS011;8008;50.024;8.172;2023-02-15T11:48:41;21.83;;;12.00;;
15814;SDS011;8008;50.024;8.172;2023-02-15T11:51:11;26.07;;;13.50;;
15814;SDS011;8008;50.024;8.172;2023-02-15T11:53:42;26.10;;;14.20;;
15814;SDS011;8008;50.024;8.172;2023-02-15T11:56:14;22.97;;;13.07;;
15814;SDS011;8008;50.024;8.172;2023-02-15T11:58:45;26.57;;;13.60;;
15814;SDS011;8008;50.024;8.172;2023-02-15T12:01:19;22.37;;;13.57;;
15814;SDS011;8008;50.024;8.172;2023-02-15T12:03:51;23.03;;;12.40;;
15814;SDS011;8008;50.024;8.172;2023-02-15T12:06:23;23.57;;;12.40;;
15814;SDS011;8008;50.024;8.172;2023-02-15T12:08:59;21.97;;;12.57;;
15814;SDS011;8008;50.024;8.172;2023-02-15T12:11:32;24.03;;;12.13;;
15814;SDS011;8008;50.024;8.172;2023-02-15T12:14:04;26.30;;;14.17;;
15814;SDS011;8008;50.024;8.172;2023-02-15T12:16:34;29.43;;;15.53;;
15814;SDS011;8008;50.024;8.172;2023-02-15T12:19:13;21.80;;;12.43;;
15814;SDS011;8008;50.024;8.172;2023-02-15T12:21:56;20.20;;;11.20;;
15814;SDS011;8008;50.024;8.172;2023-02-15T12:24:27;20.23;;;11.37;;
15814;SDS011;8008;50.024;8.172;2023-02-15T12:26:57;20.60;;;11.30;;
15814;SDS011;8008;50.024;8.172;2023-02-15T12:29:29;20.20;;;11.33;;
15814;SDS011;8008;50.024;8.172;2023-02-15T12:32:00;19.23;;;11.13;;
15814;SDS011;8008;50.024;8.172;2023-02-15T12:34:29;20.87;;;11.50;;
15814;SDS011;8008;50.024;8.172;2023-02-15T12:37:00;18.63;;;11.93;;
15814;SDS011;8008;50.024;8.172;2023-02-15T12:39:37;17.65;;;10.45;;
15814;SDS011;8008;50.024;8.172;2023-02-15T12:42:19;23.37;;;11.97;;
15814;SDS011;8008;50.024;8.172;2023-02-15T12:44:56;21.03;;;11.87;;
15814;SDS011;8008;50.024;8.172;2023-02-15T12:47:27;20.03;;;10.83;;
15814;SDS011;8008;50.024;8.172;2023-02-15T12:50:11;21.93;;;11.50;;
15814;SDS011;8008;50.024;8.172;2023-02-15T12:52:44;19.73;;;10.63;;
15814;SDS011;8008;50.024;8.172;2023-02-15T12:55:21;22.90;;;11.63;;
15814;SDS011;8008;50.024;8.172;2023-02-15T12:58:04;19.80;;;11.60;;
15814;SDS011;8008;50.024;8.172;2023-02-15T13:00:43;21.63;;;11.40;;
15814;SDS011;8008;50.024;8.172;2023-02-15T13:03:15;22.13;;;11.57;;
15814;SDS011;8008;50.024;8.172;2023-02-15T13:05:45;20.40;;;11.87;;
15814;SDS011;8008;50.024;8.172;2023-02-15T13:08:18;19.67;;;11.10;;
15814;SDS011;8008;50.024;8.172;2023-02-15T13:10:52;19.50;;;11.57;;
15814;SDS011;8008;50.024;8.172;2023-02-15T13:13:24;19.60;;;11.47;;
15814;SDS011;8008;50.024;8.172;2023-02-15T13:15:55;19.47;;;11.33;;
15814;SDS011;8008;50.024;8.172;2023-02-15T13:18:28;20.30;;;11.57;;
15814;SDS011;8008;50.024;8.172;2023-02-15T13:21:00;20.53;;;11.87;;
15814;SDS011;8008;50.024;8.172;2023-02-15T13:23:36;20.40;;;11.13;;
15814;SDS011;8008;50.024;8.172;2023-02-15T13:26:08;21.80;;;11.73;;
15814;SDS011;8008;50.024;8.172;2023-02-15T13:28:44;20.70;;;11.07;;
15814;SDS011;8008;50.024;8.172;2023-02-15T13:31:17;22.63;;;12.43;;
15814;SDS011;8008;50.024;8.172;2023-02-15T13:33:46;21.57;;;11.33;;
15814;SDS011;8008;50.024;8.172;2023-02-15T13:36:21;21.67;;;12.07;;
15814;SDS011;8008;50.024;8.172;2023-02-15T13:39:03;22.87;;;12.70;;
15814;SDS011;8008;50.024;8.172;2023-02-15T13:41:42;20.47;;;11.23;;
15814;SDS011;8008;50.024;8.172;2023-02-15T13:44:19;21.63;;;12.37;;
15814;SDS011;8008;50.024;8.172;2023-02-15T13:46:58;20.23;;;12.07;;
15814;SDS011;8008;50.024;8.172;2023-02-15T13:49:44;19.90;;;11.03;;
15814;SDS011;8008;50.024;8.172;2023-02-15T13:52:22;21.63;;;12.17;;
15814;SDS011;8008;50.024;8.172;2023-02-15T13:55:06;19.17;;;11.70;;
15814;SDS011;8008;50.024;8.172;2023-02-15T13:58:14;20.63;;;10.97;;
15814;SDS011;8008;50.024;8.172;2023-02-15T14:01:10;21.10;;;11.40;;
15814;SDS011;8008;50.024;8.172;2023-02-15T14:03:59;18.50;;;11.13;;
15814;SDS011;8008;50.024;8.172;2023-02-15T14:06:50;23.93;;;12.30;;
15814;SDS011;8008;50.024;8.172;2023-02-15T14:09:30;18.40;;;10.83;;
15814;SDS011;8008;50.024;8.172;2023-02-15T14:12:12;21.17;;;11.53;;
15814;SDS011;8008;50.024;8.172;2023-02-15T14:14:58;20.93;;;11.43;;
15814;SDS011;8008;50.024;8.172;2023-02-15T14:17:41;21.43;;;11.90;;
15814;SDS011;8008;50.024;8.172;2023-02-15T14:20:18;20.13;;;11.83;;
15814;SDS011;8008;50.024;8.172;2023-02-15T14:22:50;20.67;;;12.67;;
15814;SDS011;8008;50.024;8.172;2023-02-15T14:25:28;22.20;;;12.67;;
15814;SDS011;8008;50.024;8.172;2023-02-15T14:28:03;22.10;;;12.90;;
15814;SDS011;8008;50.024;8.172;2023-02-15T14:30:37;22.10;;;12.80;;
15814;SDS011;8008;50.024;8.172;2023-02-15T14:33:08;22.47;;;12.63;;
15814;SDS011;8008;50.024;8.172;2023-02-15T14:36:01;21.17;;;12.40;;
15814;SDS011;8008;50.024;8.172;2023-02-15T14:41:36;23.73;;;12.70;;
15814;SDS011;8008;50.024;8.172;2023-02-15T14:44:07;29.20;;;15.97;;
15814;SDS011;8008;50.024;8.172;2023-02-15T14:46:42;28.73;;;16.53;;
15814;SDS011;8008;50.024;8.172;2023-02-15T14:49:16;29.00;;;16.37;;
15814;SDS011;8008;50.024;8.172;2023-02-15T14:52:00;26.07;;;14.43;;
15814;SDS011;8008;50.024;8.172;2023-02-15T14:57:27;23.93;;;13.47;;
15814;SDS011;8008;50.024;8.172;2023-02-15T15:00:03;25.50;;;14.10;;
15814;SDS011;8008;50.024;8.172;2023-02-15T15:05:51;25.03;;;13.57;;
15814;SDS011;8008;50.024;8.172;2023-02-15T15:08:27;26.03;;;14.70;;
15814;SDS011;8008;50.024;8.172;2023-02-15T15:14:09;27.13;;;15.53;;
15814;SDS011;8008;50.024;8.172;2023-02-15T15:16:59;23.27;;;13.77;;
15814;SDS011;8008;50.024;8.172;2023-02-15T15:22:28;27.13;;;14.97;;
15814;SDS011;8008;50.024;8.172;2023-02-15T15:24:57;31.60;;;15.37;;
15814;SDS011;8008;50.024;8.172;2023-02-15T15:27:41;32.77;;;16.03;;
15814;SDS011;8008;50.024;8.172;2023-02-15T15:33:46;25.97;;;14.83;;
15814;SDS011;8008;50.024;8.172;2023-02-15T15:36:40;29.67;;;15.30;;
15814;SDS011;8008;50.024;8.172;2023-02-15T15:42:57;28.50;;;15.63;;
15814;SDS011;8008;50.024;8.172;2023-02-15T15:46:03;29.37;;;15.40;;
15814;SDS011;8008;50.024;8.172;2023-02-15T15:48:40;30.17;;;15.67;;
15814;SDS011;8008;50.024;8.172;2023-02-15T15:51:12;27.50;;;14.70;;
15814;SDS011;8008;50.024;8.172;2023-02-15T15:53:46;27.57;;;14.70;;
15814;SDS011;8008;50.024;8.172;2023-02-15T15:56:19;28.70;;;14.37;;
15814;SDS011;8008;50.024;8.172;2023-02-15T15:58:50;27.53;;;15.60;;
15814;SDS011;8008;50.024;8.172;2023-02-15T16:01:24;30.33;;;16.53;;
15814;SDS011;8008;50.024;8.172;2023-02-15T16:03:55;28.60;;;16.10;;
15814;SDS011;8008;50.024;8.172;2023-02-15T16:06:33;33.37;;;16.77;;
15814;SDS011;8008;50.024;8.172;2023-02-15T16:09:12;31.70;;;16.63;;
15814;SDS011;8008;50.024;8.172;2023-02-15T16:11:43;30.93;;;16.00;;
15814;SDS011;8008;50.024;8.172;2023-02-15T16:14:15;35.10;;;17.70;;
15814;SDS011;8008;50.024;8.172;2023-02-15T16:16:49;34.17;;;17.20;;
15814;SDS011;8008;50.024;8.172;2023-02-15T16:19:22;36.40;;;20.07;;
15814;SDS011;8008;50.024;8.172;2023-02-15T16:21:55;33.57;;;18.37;;
15814;SDS011;8008;50.024;8.172;2023-02-15T16:24:32;33.87;;;17.83;;
15814;SDS011;8008;50.024;8.172;2023-02-15T16:27:35;33.93;;;17.70;;
15814;SDS011;8008;50.024;8.172;2023-02-15T16:33:02;32.07;;;17.13;;
15814;SDS011;8008;50.024;8.172;2023-02-15T16:35:32;35.03;;;18.73;;
15814;SDS011;8008;50.024;8.172;2023-02-15T16:38:03;32.63;;;17.50;;
15814;SDS011;8008;50.024;8.172;2023-02-15T16:40:39;31.60;;;17.17;;
15814;SDS011;8008;50.024;8.172;2023-02-15T16:43:16;29.27;;;16.47;;
15814;SDS011;8008;50.024;8.172;2023-02-15T16:45:48;32.17;;;17.93;;
15814;SDS011;8008;50.024;8.172;2023-02-15T16:48:18;30.27;;;16.83;;
15814;SDS011;8008;50.024;8.172;2023-02-15T16:50:49;32.17;;;17.83;;
15814;SDS011;8008;50.024;8.172;2023-02-15T16:53:22;33.90;;;17.57;;
15814;SDS011;8008;50.024;8.172;2023-02-15T16:55:53;29.50;;;16.30;;
15814;SDS011;8008;50.024;8.172;2023-02-15T16:58:26;31.40;;;17.33;;
15814;SDS011;8008;50.024;8.172;2023-02-15T17:00:57;31.37;;;16.63;;
15814;SDS011;8008;50.024;8.172;2023-02-15T17:03:27;32.13;;;16.87;;
15814;SDS011;8008;50.024;8.172;2023-02-15T17:05:56;32.43;;;16.80;;
15814;SDS011;8008;50.024;8.172;2023-02-15T17:08:27;34.37;;;17.20;;
15814;SDS011;8008;50.024;8.172;2023-02-15T17:16:41;32.40;;;17.07;;
15814;SDS011;8008;50.024;8.172;2023-02-15T17:19:15;30.93;;;16.70;;
15814;SDS011;8008;50.024;8.172;2023-02-15T17:21:47;33.87;;;16.97;;
15814;SDS011;8008;50.024;8.172;2023-02-15T17:24:19;30.53;;;16.70;;
15814;SDS011;8008;50.024;8.172;2023-02-15T17:26:53;31.87;;;16.30;;
15814;SDS011;8008;50.024;8.172;2023-02-15T17:29:29;31.27;;;15.97;;
15814;SDS011;8008;50.024;8.172;2023-02-15T17:32:01;31.73;;;16.67;;
15814;SDS011;8008;50.024;8.172;2023-02-15T17:34:44;31.13;;;16.37;;
15814;SDS011;8008;50.024;8.172;2023-02-15T17:37:28;34.83;;;16.80;;
15814;SDS011;8008;50.024;8.172;2023-02-15T17:39:59;32.93;;;15.87;;
15814;SDS011;8008;50.024;8.172;2023-02-15T17:42:32;33.33;;;16.80;;
15814;SDS011;8008;50.024;8.172;2023-02-15T17:45:00;34.20;;;17.07;;
15814;SDS011;8008;50.024;8.172;2023-02-15T17:47:28;33.50;;;16.93;;
15814;SDS011;8008;50.024;8.172;2023-02-15T17:49:57;34.47;;;16.93;;
15814;SDS011;8008;50.024;8.172;2023-02-15T17:52:28;35.53;;;17.23;;
15814;SDS011;8008;50.024;8.172;2023-02-15T17:54:58;33.33;;;16.97;;
15814;SDS011;8008;50.024;8.172;2023-02-15T17:57:50;32.23;;;16.40;;
15814;SDS011;8008;50.024;8.172;2023-02-15T18:00:18;33.53;;;17.23;;
15814;SDS011;8008;50.024;8.172;2023-02-15T18:03:03;35.67;;;17.13;;
15814;SDS011;8008;50.024;8.172;2023-02-15T18:05:49;41.10;;;18.20;;
15814;SDS011;8008;50.024;8.172;2023-02-15T18:08:34;38.50;;;17.90;;
15814;SDS011;8008;50.024;8.172;2023-02-15T18:11:20;36.30;;;17.63;;
15814;SDS011;8008;50.024;8.172;2023-02-15T18:14:04;34.60;;;17.33;;
15814;SDS011;8008;50.024;8.172;2023-02-15T18:16:34;41.60;;;18.63;;
15814;SDS011;8008;50.024;8.172;2023-02-15T18:19:03;38.47;;;19.27;;
15814;SDS011;8008;50.024;8.172;2023-02-15T18:21:32;39.47;;;19.83;;
15814;SDS011;8008;50.024;8.172;2023-02-15T18:24:00;39.80;;;19.50;;
15814;SDS011;8008;50.024;8.172;2023-02-15T18:26:29;35.03;;;18.47;;
15814;SDS011;8008;50.024;8.172;2023-02-15T18:28:57;38.73;;;19.43;;
15814;SDS011;8008;50.024;8.172;2023-02-15T18:31:25;40.27;;;19.37;;
15814;SDS011;8008;50.024;8.172;2023-02-15T18:33:53;38.93;;;19.03;;
15814;SDS011;8008;50.024;8.172;2023-02-15T18:36:25;37.57;;;18.10;;
15814;SDS011;8008;50.024;8.172;2023-02-15T18:38:55;36.70;;;18.07;;
15814;SDS011;8008;50.024;8.172;2023-02-15T18:41:23;37.83;;;18.90;;
15814;SDS011;8008;50.024;8.172;2023-02-15T18:43:52;35.67;;;17.83;;
15814;SDS011;8008;50.024;8.172;2023-02-15T18:46:21;40.53;;;18.83;;
15814;SDS011;8008;50.024;8.172;2023-02-15T18:48:49;39.73;;;18.37;;
15814;SDS011;8008;50.024;8.172;2023-02-15T18:51:17;39.60;;;18.83;;
15814;SDS011;8008;50.024;8.172;2023-02-15T18:53:47;41.43;;;19.17;;
15814;SDS011;8008;50.024;8.172;2023-02-15T18:56:18;42.67;;;20.27;;
15814;SDS011;8008;50.024;8.172;2023-02-15T18:58:47;40.10;;;19.83;;
15814;SDS011;8008;50.024;8.172;2023-02-15T19:01:17;36.07;;;18.00;;
15814;SDS011;8008;50.024;8.172;2023-02-15T19:03:46;34.93;;;17.43;;
15814;SDS011;8008;50.024;8.172;2023-02-15T19:06:16;38.67;;;18.67;;
15814;SDS011;8008;50.024;8.172;2023-02-15T19:08:46;37.50;;;18.17;;
15814;SDS011;8008;50.024;8.172;2023-02-15T19:11:16;38.27;;;18.57;;
15814;SDS011;8008;50.024;8.172;2023-02-15T19:13:48;41.23;;;18.63;;
15814;SDS011;8008;50.024;8.172;2023-02-15T19:16:26;42.63;;;19.23;;
15814;SDS011;8008;50.024;8.172;2023-02-15T19:18:56;43.27;;;18.80;;
15814;SDS011;8008;50.024;8.172;2023-02-15T19:21:24;41.37;;;18.93;;
15814;SDS011;8008;50.024;8.172;2023-02-15T19:23:55;41.80;;;19.30;;
15814;SDS011;8008;50.024;8.172;2023-02-15T19:26:25;41.77;;;18.57;;
15814;SDS011;8008;50.024;8.172;2023-02-15T19:29:10;39.17;;;18.97;;
15814;SDS011;8008;50.024;8.172;2023-02-15T19:31:41;37.60;;;18.23;;
15814;SDS011;8008;50.024;8.172;2023-02-15T19:34:13;41.50;;;19.73;;
15814;SDS011;8008;50.024;8.172;2023-02-15T19:36:43;42.50;;;19.57;;
15814;SDS011;8008;50.024;8.172;2023-02-15T19:39:22;41.70;;;19.83;;
15814;SDS011;8008;50.024;8.172;2023-02-15T19:41:54;43.13;;;19.57;;
15814;SDS011;8008;50.024;8.172;2023-02-15T19:44:22;38.00;;;18.57;;
15814;SDS011;8008;50.024;8.172;2023-02-15T19:46:52;39.57;;;18.83;;